MST,Max TemperatureF,Mean TemperatureF,Min TemperatureF,Max Dew PointF,MeanDew PointF,Min DewpointF,Max Humidity, Mean Humidity, Min Humidity, Max Sea Level PressureIn, Mean Sea Level PressureIn, Min Sea Level PressureIn, Max VisibilityMiles, Mean VisibilityMiles, Min VisibilityMiles, Max Wind SpeedMPH, Mean Wind SpeedMPH, Max Gust SpeedMPH,PrecipitationIn, CloudCover, Events, WindDirDegrees
2012-11-1,80,70,59,46,23,16,63,21,9,29.99,29.92,29.85,10,10,10,14,6,,0.00,0,,231
2012-11-2,75,64,53,37,31,28,45,31,18,30.07,29.93,29.86,10,10,10,13,5,,0.00,3,,226
2012-11-3,72,62,53,43,35,27,57,38,19,30.06,30.02,29.96,10,10,10,14,4,18,0.00,1,,196
2012-11-4,77,64,52,31,28,24,43,27,15,30.12,30.08,30.03,10,10,10,8,3,,0.00,0,,201
2012-11-5,78,64,50,27,23,18,37,22,12,30.15,30.09,30.03,10,10,10,8,4,,0.00,0,,218
2012-11-6,82,68,55,23,21,19,25,18,11,30.23,30.08,30.00,10,10,10,12,5,,0.00,0,,217
2012-11-7,82,68,55,37,26,21,29,21,13,30.09,30.00,29.90,10,10,10,9,7,,0.00,2,,238
2012-11-8,77,67,57,45,33,25,63,32,15,30.08,29.95,29.87,10,10,10,23,8,34,0.00,6,Rain,228
2012-11-9,69,61,53,48,45,37,82,57,33,30.04,29.86,29.73,10,10,10,32,12,45,0.07,5,Rain,212
2012-11-10,55,48,39,43,31,17,76,51,30,30.03,29.87,29.71,10,10,10,32,23,50,0.00,3,Rain,250
2012-11-11,52,43,34,25,14,5,62,36,17,30.30,30.19,30.04,10,10,10,10,5,16,0.00,0,,304
2012-11-12,59,46,34,12,10,9,39,25,14,30.32,30.22,30.14,10,10,10,8,5,,0.00,0,,91
2012-11-13,68,52,37,12,8,5,33,19,9,30.20,30.14,30.06,10,10,10,8,3,,0.00,1,,46
2012-11-14,71,55,39,14,10,7,28,17,9,30.19,30.11,30.04,10,10,10,9,2,,0.00,3,,108
2012-11-15,71,58,46,23,20,12,34,22,14,30.13,30.08,29.90,10,10,10,7,1,,0.00,7,,58
2012-11-16,69,61,53,34,27,21,41,28,20,30.17,30.07,30.03,10,10,10,14,4,,0.00,5,Rain,264
2012-11-17,71,62,52,49,40,25,89,50,17,30.15,30.08,30.01,10,10,8,18,8,17,0.04,6,Rain,242
2012-11-18,66,58,51,50,45,41,92,69,42,30.15,30.09,30.02,10,10,5,14,7,,0.10,2,Rain,210
2012-11-19,66,57,48,45,41,36,87,59,35,30.26,30.17,30.12,10,10,10,8,4,,0.00,5,,204
2012-11-20,69,58,46,37,36,34,71,46,27,30.18,30.10,30.03,10,10,10,10,3,,0.00,5,,123
2012-11-21,77,64,51,39,34,30,58,38,19,30.08,30.02,29.95,10,10,10,15,4,22,0.00,4,,239
2012-11-22,75,62,48,33,28,23,50,31,16,30.12,30.06,30.00,10,10,10,10,5,,0.00,0,,227
2012-11-23,73,62,50,30,27,21,37,28,18,30.30,30.17,30.12,10,10,10,13,6,16,0.00,0,,136
2012-11-24,72,58,45,33,29,25,46,35,23,30.20,30.10,30.00,10,10,10,8,4,,0.00,0,,109
2012-11-25,73,60,48,32,26,20,48,30,15,30.01,29.94,29.87,10,10,10,25,5,33,0.00,0,,234
2012-11-26,69,58,48,23,22,21,37,26,16,30.12,30.03,29.92,10,10,10,9,4,,0.00,1,,201
2012-11-27,71,58,46,39,26,23,71,32,17,30.22,30.15,30.09,10,10,10,15,4,20,0.00,4,,157
2012-11-28,69,58,46,34,30,27,50,36,23,30.21,30.14,30.08,10,10,10,15,5,,0.00,4,,243
2012-11-29,71,58,46,34,30,25,62,38,20,30.21,30.14,30.07,10,10,10,15,5,,0.00,0,,237
2012-11-30,71,58,46,36,30,27,66,38,19,30.15,30.10,30.02,10,10,10,13,6,,0.00,1,,220